createdAt,value
2022-12-11T00:01:25.394Z,97.46
2022-12-11T00:03:55.200Z,97.71
2022-12-11T00:06:24.846Z,97.68
2022-12-11T00:08:55.127Z,97.88
2022-12-11T00:11:26.725Z,97.76
2022-12-11T00:13:55.995Z,98.33
2022-12-11T00:16:27.390Z,98.33
2022-12-11T00:18:56.434Z,98.21
2022-12-11T00:21:25.007Z,98.35
2022-12-11T00:23:53.969Z,98.41
2022-12-11T00:26:22.914Z,98.34
2022-12-11T00:28:57.644Z,98.34
2022-12-11T00:31:26.590Z,98.40
2022-12-11T00:33:57.451Z,98.74
2022-12-11T00:36:27.385Z,98.51
2022-12-11T00:38:56.150Z,98.32
2022-12-11T00:41:24.959Z,98.40
2022-12-11T00:43:53.977Z,98.62
2022-12-11T00:46:22.984Z,98.48
2022-12-11T00:48:51.918Z,98.82
2022-12-11T00:51:22.832Z,98.95
2022-12-11T00:53:52.887Z,98.85
2022-12-11T00:56:22.705Z,98.93
2022-12-11T00:58:51.805Z,98.90
2022-12-11T01:01:23.379Z,99.08
2022-12-11T01:03:56.316Z,99.22
2022-12-11T01:06:27.233Z,98.93
2022-12-11T01:09:15.411Z,99.27
2022-12-11T01:11:44.825Z,99.07
2022-12-11T01:14:14.144Z,99.18
2022-12-11T01:16:44.422Z,99.31
2022-12-11T01:19:13.541Z,99.14
2022-12-11T01:21:42.207Z,99.35
2022-12-11T01:24:12.149Z,99.56
2022-12-11T01:26:40.927Z,99.49
2022-12-11T01:29:09.706Z,99.32
2022-12-11T01:31:39.625Z,99.49
2022-12-11T01:34:08.206Z,99.13
2022-12-11T01:36:39.060Z,98.90
2022-12-11T01:39:07.934Z,99.14
2022-12-11T01:41:36.533Z,98.96
2022-12-11T01:44:29.474Z,99.39
2022-12-11T01:46:58.925Z,99.14
2022-12-11T01:49:28.286Z,99.22
2022-12-11T01:52:04.335Z,99.18
2022-12-11T01:54:33.348Z,99.45
2022-12-11T01:57:07.424Z,99.41
2022-12-11T01:59:38.896Z,99.39
2022-12-11T02:02:20.009Z,99.54
2022-12-11T02:04:49.792Z,99.78
2022-12-11T02:07:18.475Z,99.61
2022-12-11T02:09:48.160Z,99.48
2022-12-11T02:12:35.380Z,99.58
2022-12-11T02:15:16.876Z,99.37
2022-12-11T02:17:55.082Z,99.48
2022-12-11T02:20:28.605Z,99.46
2022-12-11T02:23:03.106Z,99.31
2022-12-11T02:25:33.636Z,99.06
2022-12-11T02:28:23.404Z,99.21
2022-12-11T02:30:56.163Z,99.19
2022-12-11T02:33:42.813Z,99.11
2022-12-11T02:36:12.510Z,99.22
2022-12-11T02:38:43.012Z,99.20
2022-12-11T02:41:12.437Z,99.12
2022-12-11T02:43:42.350Z,99.70
2022-12-11T02:46:11.826Z,99.45
2022-12-11T02:48:41.318Z,99.60
2022-12-11T02:51:10.581Z,99.59
2022-12-11T02:53:41.597Z,99.62
2022-12-11T02:56:20.990Z,99.87
2022-12-11T02:58:58.533Z,99.47
2022-12-11T03:01:28.017Z,99.02
2022-12-11T03:03:57.123Z,99.68
2022-12-11T03:06:33.819Z,99.68
2022-12-11T03:09:03.222Z,99.39
2022-12-11T03:11:31.899Z,99.14
2022-12-11T03:14:03.372Z,99.07
2022-12-11T03:16:36.937Z,99.27
2022-12-11T03:19:33.011Z,99.38
2022-12-11T03:22:10.582Z,99.48
2022-12-11T03:24:40.701Z,99.36
2022-12-11T03:27:31.399Z,99.34
2022-12-11T03:30:06.316Z,99.52
2022-12-11T03:33:02.334Z,99.31
2022-12-11T03:35:38.419Z,99.46
2022-12-11T03:38:11.834Z,99.35
2022-12-11T03:40:42.964Z,99.76
2022-12-11T03:43:12.142Z,99.54
2022-12-11T03:45:42.444Z,99.78
2022-12-11T03:48:12.677Z,99.94
2022-12-11T03:50:43.344Z,100.00
2022-12-11T03:53:12.519Z,100.00
2022-12-11T03:55:41.304Z,100.00
2022-12-11T03:58:10.000Z,100.00
2022-12-11T04:00:38.965Z,100.00
2022-12-11T04:03:14.286Z,100.00
2022-12-11T04:05:46.710Z,100.00
2022-12-11T04:08:17.364Z,100.00
2022-12-11T04:10:46.122Z,100.00
2022-12-11T04:13:14.899Z,100.00
2022-12-11T04:15:43.734Z,100.00
2022-12-11T04:18:31.103Z,100.00
2022-12-11T04:21:18.564Z,100.00
2022-12-11T04:24:06.284Z,100.00
2022-12-11T04:26:35.174Z,100.00
2022-12-11T04:29:04.154Z,100.00
2022-12-11T04:31:32.925Z,100.00
2022-12-11T04:34:01.836Z,100.00
2022-12-11T04:36:30.516Z,100.00
2022-12-11T04:38:59.504Z,100.00
2022-12-11T04:41:28.300Z,100.00
2022-12-11T04:43:56.879Z,100.00
2022-12-11T04:46:26.109Z,100.00
2022-12-11T04:48:57.577Z,99.99
2022-12-11T04:51:28.465Z,99.99
2022-12-11T04:53:58.985Z,99.76
2022-12-11T04:56:27.467Z,99.92
2022-12-11T04:58:56.189Z,99.61
2022-12-11T05:01:25.106Z,99.35
2022-12-11T05:03:53.946Z,99.23
2022-12-11T05:06:22.847Z,99.24
2022-12-11T05:08:51.826Z,99.56
2022-12-11T05:11:20.427Z,98.74
2022-12-11T05:13:49.428Z,98.45
2022-12-11T05:16:18.372Z,98.73
2022-12-11T05:18:48.127Z,98.76
2022-12-11T05:21:16.890Z,98.89
2022-12-11T05:23:45.575Z,98.66
2022-12-11T05:26:17.868Z,98.00
2022-12-11T05:28:47.785Z,97.94
2022-12-11T05:31:19.256Z,97.42
2022-12-11T05:33:49.347Z,97.21
2022-12-11T05:36:26.814Z,97.44
2022-12-11T05:38:55.627Z,97.44
2022-12-11T05:41:27.165Z,96.97
2022-12-11T05:43:55.967Z,97.27
2022-12-11T05:46:27.276Z,97.04
2022-12-11T05:49:00.161Z,96.81
2022-12-11T05:51:30.448Z,97.17
2022-12-11T05:53:58.986Z,97.00
2022-12-11T05:56:33.108Z,96.49
2022-12-11T05:59:04.247Z,96.75
2022-12-11T06:01:36.969Z,96.89
2022-12-11T06:04:07.430Z,96.08
2022-12-11T06:06:36.920Z,96.31
2022-12-11T06:09:07.287Z,96.00
2022-12-11T06:11:36.486Z,96.19
2022-12-11T06:14:05.160Z,96.23
2022-12-11T06:16:33.983Z,95.97
2022-12-11T06:19:03.790Z,95.65
2022-12-11T06:21:33.474Z,95.78
2022-12-11T06:24:04.312Z,95.85
2022-12-11T06:26:33.094Z,95.59
2022-12-11T06:29:01.671Z,95.67
2022-12-11T06:31:31.215Z,95.70
2022-12-11T06:34:00.141Z,95.04
2022-12-11T06:36:29.067Z,95.07
2022-12-11T06:38:57.657Z,94.78
2022-12-11T06:41:26.556Z,94.91
2022-12-11T06:43:55.437Z,94.61
2022-12-11T06:46:24.199Z,94.88
2022-12-11T06:48:52.797Z,95.23
2022-12-11T06:51:23.417Z,95.47
2022-12-11T06:53:53.772Z,95.32
2022-12-11T06:56:23.173Z,95.24
2022-12-11T06:58:52.357Z,95.65
2022-12-11T07:01:23.863Z,95.41
2022-12-11T07:03:57.339Z,95.50
2022-12-11T07:06:27.399Z,95.89
2022-12-11T07:08:56.229Z,95.60
2022-12-11T07:11:25.430Z,95.28
2022-12-11T07:13:55.126Z,95.01
2022-12-11T07:16:23.774Z,95.23
2022-12-11T07:18:53.004Z,95.09
2022-12-11T07:21:22.309Z,95.03
2022-12-11T07:23:51.308Z,95.61
2022-12-11T07:26:23.227Z,95.08
2022-12-11T07:28:54.404Z,94.54
2022-12-11T07:31:25.284Z,94.69
2022-12-11T07:34:04.474Z,94.47
2022-12-11T07:36:34.187Z,94.13
2022-12-11T07:39:03.989Z,94.25
2022-12-11T07:41:33.607Z,93.10
2022-12-11T07:44:03.429Z,92.72
2022-12-11T07:46:33.965Z,91.83
2022-12-11T07:49:03.165Z,92.60
2022-12-11T07:51:34.224Z,92.85
2022-12-11T07:54:05.692Z,92.56
2022-12-11T07:56:35.757Z,92.09
2022-12-11T07:59:05.777Z,91.83
2022-12-11T08:01:36.798Z,91.88
2022-12-11T08:04:10.415Z,91.58
2022-12-11T08:06:40.430Z,91.43
2022-12-11T08:09:17.456Z,91.77
2022-12-11T08:11:51.529Z,91.69
2022-12-11T08:14:21.326Z,91.89
2022-12-11T08:16:50.320Z,92.32
2022-12-11T08:19:19.111Z,92.60
2022-12-11T08:21:47.904Z,92.88
2022-12-11T08:24:20.806Z,93.26
2022-12-11T08:26:49.887Z,93.34
2022-12-11T08:29:18.667Z,92.88
2022-12-11T08:31:47.769Z,91.75
2022-12-11T08:34:16.668Z,91.14
2022-12-11T08:36:46.032Z,90.72
2022-12-11T08:39:15.028Z,90.41
2022-12-11T08:41:43.847Z,89.97
2022-12-11T08:44:16.653Z,91.26
2022-12-11T08:46:47.048Z,91.95
2022-12-11T08:49:16.951Z,92.79
2022-12-11T08:51:46.461Z,93.22
2022-12-11T08:54:15.247Z,92.88
2022-12-11T08:56:44.036Z,93.32
2022-12-11T08:59:13.047Z,92.85
2022-12-11T09:01:42.331Z,93.23
2022-12-11T09:04:11.448Z,93.38
2022-12-11T09:06:42.872Z,93.61
2022-12-11T09:09:13.557Z,93.34
2022-12-11T09:11:48.550Z,93.15
2022-12-11T09:14:17.122Z,93.33
2022-12-11T09:16:47.988Z,93.01
2022-12-11T09:19:18.031Z,92.80
2022-12-11T09:21:48.109Z,92.87
2022-12-11T09:24:17.606Z,92.83
2022-12-11T09:26:47.728Z,92.97
2022-12-11T09:29:17.548Z,92.51
2022-12-11T09:31:49.656Z,92.51
2022-12-11T09:34:24.792Z,92.34
2022-12-11T09:36:57.832Z,92.40
2022-12-11T09:39:26.918Z,92.78
2022-12-11T09:42:04.925Z,92.57
2022-12-11T09:44:45.736Z,92.39
2022-12-11T09:47:38.014Z,92.20
2022-12-11T09:50:10.730Z,91.87
2022-12-11T09:52:45.867Z,91.34
2022-12-11T09:55:25.299Z,91.28
2022-12-11T09:58:26.373Z,90.78
2022-12-11T10:01:10.865Z,90.41
2022-12-11T10:04:05.835Z,90.11
2022-12-11T10:06:43.088Z,90.07
2022-12-11T10:09:20.529Z,89.48
2022-12-11T10:12:08.012Z,88.31
2022-12-11T10:15:02.983Z,88.58
2022-12-11T10:17:33.441Z,89.26
2022-12-11T10:20:40.822Z,88.18
2022-12-11T10:23:20.468Z,87.12
2022-12-11T10:25:54.283Z,87.50
2022-12-11T10:28:24.198Z,87.27
2022-12-11T10:31:02.962Z,85.91
2022-12-11T10:33:58.956Z,86.70
2022-12-11T10:36:33.480Z,86.73
2022-12-11T10:39:02.582Z,88.08
2022-12-11T10:41:39.581Z,88.25
2022-12-11T10:44:23.073Z,87.77
2022-12-11T10:47:15.905Z,87.73
2022-12-11T10:49:56.389Z,87.61
2022-12-11T10:52:27.847Z,86.41
2022-12-11T10:55:05.423Z,86.06
2022-12-11T10:57:39.446Z,85.67
2022-12-11T11:00:09.950Z,84.83
2022-12-11T11:02:40.591Z,84.59
2022-12-11T11:05:26.234Z,85.68
2022-12-11T11:08:19.918Z,85.89
2022-12-11T11:10:56.984Z,85.72
2022-12-11T11:13:27.920Z,85.85
2022-12-11T11:16:02.188Z,86.11
2022-12-11T11:18:31.906Z,86.21
2022-12-11T11:21:01.912Z,84.84
2022-12-11T11:23:31.207Z,82.90
2022-12-11T11:26:02.008Z,83.61
2022-12-11T11:28:37.511Z,84.16
2022-12-11T11:31:09.595Z,83.81
2022-12-11T11:33:55.648Z,84.09
2022-12-11T11:36:30.523Z,83.89
2022-12-11T11:39:21.067Z,83.74
2022-12-11T11:42:15.796Z,84.04
2022-12-11T11:45:04.580Z,84.52
2022-12-11T11:47:43.967Z,84.39
2022-12-11T11:50:18.477Z,84.35
2022-12-11T11:52:51.587Z,84.24
2022-12-11T11:55:33.274Z,84.48
2022-12-11T11:58:16.604Z,83.71
2022-12-11T12:00:45.487Z,83.58
2022-12-11T12:03:19.977Z,82.93
2022-12-11T12:05:57.397Z,82.48
2022-12-11T12:08:46.867Z,82.96
2022-12-11T12:11:37.990Z,82.07
2022-12-11T12:14:43.514Z,82.76
2022-12-11T12:17:22.928Z,83.57
2022-12-11T12:19:55.248Z,83.45
2022-12-11T12:22:53.623Z,83.48
2022-12-11T12:25:42.168Z,82.15
2022-12-11T12:28:38.507Z,83.53
2022-12-11T12:31:42.172Z,83.57
2022-12-11T12:34:59.027Z,83.72
2022-12-11T12:37:30.887Z,84.86
2022-12-11T12:40:02.744Z,84.84
2022-12-11T12:42:39.845Z,84.75
2022-12-11T12:45:24.657Z,84.46
2022-12-11T12:47:53.899Z,84.67
2022-12-11T12:50:25.693Z,85.16
2022-12-11T12:52:55.162Z,85.12
2022-12-11T12:55:27.552Z,85.69
2022-12-11T12:58:02.050Z,86.05
2022-12-11T13:00:40.121Z,85.81
2022-12-11T13:03:23.892Z,86.22
2022-12-11T13:06:05.503Z,85.99
2022-12-11T13:08:48.509Z,85.97
2022-12-11T13:11:19.410Z,85.54
2022-12-11T13:14:02.673Z,85.61
2022-12-11T13:16:42.960Z,85.40
2022-12-11T13:19:24.112Z,85.45
2022-12-11T13:22:22.824Z,84.47
2022-12-11T13:25:00.191Z,84.51
2022-12-11T13:27:41.088Z,84.94
2022-12-11T13:30:16.148Z,84.60
2022-12-11T13:33:04.230Z,83.78
2022-12-11T13:35:34.450Z,83.58
2022-12-11T13:38:17.545Z,84.44
2022-12-11T13:40:50.877Z,84.88
2022-12-11T13:43:24.006Z,84.76
2022-12-11T13:45:57.039Z,85.20
2022-12-11T13:48:33.134Z,85.93
2022-12-11T13:51:03.630Z,86.88
2022-12-11T13:53:35.038Z,87.62
2022-12-11T13:56:14.644Z,87.81
2022-12-11T13:58:43.658Z,88.45
2022-12-11T14:01:23.541Z,88.70
2022-12-11T14:04:07.325Z,89.23
2022-12-11T14:06:37.748Z,89.80
2022-12-11T14:09:07.627Z,89.35
2022-12-11T14:11:42.112Z,89.60
2022-12-11T14:14:21.407Z,89.78
2022-12-11T14:16:52.080Z,89.60
2022-12-11T14:19:22.883Z,89.12
2022-12-11T14:22:04.476Z,88.53
2022-12-11T14:24:33.546Z,88.85
2022-12-11T14:27:05.131Z,88.20
2022-12-11T14:29:34.305Z,87.82
2022-12-11T14:32:05.517Z,87.84
2022-12-11T14:34:44.915Z,88.27
2022-12-11T14:37:16.116Z,88.23
2022-12-11T14:39:47.059Z,88.01
2022-12-11T14:42:22.125Z,88.56
2022-12-11T14:44:55.857Z,88.62
2022-12-11T14:47:39.521Z,88.68
2022-12-11T14:50:17.412Z,88.08
2022-12-11T14:52:54.224Z,87.82
2022-12-11T14:55:25.028Z,87.48
2022-12-11T14:57:59.905Z,87.23
2022-12-11T15:00:36.624Z,87.71
2022-12-11T15:03:22.596Z,87.53
2022-12-11T15:05:54.803Z,87.28
2022-12-11T15:08:28.793Z,86.88
2022-12-11T15:11:14.939Z,86.33
2022-12-11T15:14:01.851Z,86.05
2022-12-11T15:16:34.692Z,85.31
2022-12-11T15:19:04.551Z,85.92
2022-12-11T15:21:38.771Z,86.24
2022-12-11T15:24:19.652Z,86.30
2022-12-11T15:26:49.521Z,85.96
2022-12-11T15:29:42.992Z,85.97
2022-12-11T15:32:14.759Z,86.07
2022-12-11T15:34:52.262Z,85.98
2022-12-11T15:37:28.840Z,85.69
2022-12-11T15:40:00.225Z,86.20
2022-12-11T15:42:35.006Z,86.16
2022-12-11T15:45:07.871Z,86.50
2022-12-11T15:47:36.769Z,86.30
2022-12-11T15:50:19.733Z,86.44
2022-12-11T15:52:51.785Z,86.84
2022-12-11T15:55:22.044Z,86.24
2022-12-11T15:57:57.490Z,86.28
2022-12-11T16:00:28.483Z,86.30
2022-12-11T16:02:58.059Z,85.42
2022-12-11T16:05:28.400Z,84.84
2022-12-11T16:08:00.642Z,84.92
2022-12-11T16:10:31.598Z,84.84
2022-12-11T16:13:01.225Z,84.88
2022-12-11T16:15:30.474Z,84.82
2022-12-11T16:18:10.897Z,84.76
2022-12-11T16:20:43.362Z,84.84
2022-12-11T16:23:15.463Z,84.90
2022-12-11T16:25:45.898Z,85.26
2022-12-11T16:28:18.510Z,85.40
2022-12-11T16:30:48.072Z,85.04
2022-12-11T16:33:19.964Z,84.61
2022-12-11T16:35:50.302Z,84.48
2022-12-11T16:38:19.804Z,83.93
2022-12-11T16:40:50.035Z,83.86
2022-12-11T16:43:20.810Z,83.93
2022-12-11T16:45:57.308Z,84.36
2022-12-11T16:48:27.137Z,84.20
2022-12-11T16:50:59.105Z,84.33
2022-12-11T16:53:28.303Z,84.59
2022-12-11T16:55:58.221Z,85.05
2022-12-11T16:58:28.276Z,85.10
2022-12-11T17:01:03.930Z,85.09
2022-12-11T17:03:33.779Z,85.28
2022-12-11T17:06:07.744Z,85.63
2022-12-11T17:08:38.899Z,85.87
2022-12-11T17:11:12.164Z,85.97
2022-12-11T17:13:41.954Z,86.14
2022-12-11T17:16:14.094Z,85.91
2022-12-11T17:18:47.967Z,86.05
2022-12-11T17:21:19.922Z,86.58
2022-12-11T17:23:50.858Z,86.49
2022-12-11T17:26:22.400Z,86.23
2022-12-11T17:28:56.212Z,86.08
2022-12-11T17:31:29.257Z,86.53
2022-12-11T17:34:03.898Z,86.28
2022-12-11T17:36:35.042Z,86.37
2022-12-11T17:39:06.833Z,87.07
2022-12-11T17:41:37.306Z,87.37
2022-12-11T17:44:12.988Z,87.83
2022-12-11T17:46:43.602Z,87.93
2022-12-11T17:49:14.569Z,87.73
2022-12-11T17:51:45.162Z,88.05
2022-12-11T17:54:15.694Z,88.21
2022-12-11T17:56:45.821Z,87.91
2022-12-11T17:59:15.540Z,88.69
2022-12-11T18:01:46.864Z,88.83
2022-12-11T18:04:18.431Z,89.26
2022-12-11T18:06:48.461Z,89.06
2022-12-11T18:09:19.393Z,89.20
2022-12-11T18:11:49.608Z,89.65
2022-12-11T18:14:20.762Z,89.58
2022-12-11T18:16:52.234Z,89.46
2022-12-11T18:19:24.062Z,89.48
2022-12-11T18:21:59.320Z,89.88
2022-12-11T18:24:33.582Z,90.22
2022-12-11T18:27:05.208Z,90.07
2022-12-11T18:29:35.301Z,89.98
2022-12-11T18:32:07.162Z,90.12
2022-12-11T18:34:40.137Z,89.97
2022-12-11T18:37:10.681Z,90.58
2022-12-11T18:39:43.140Z,90.41
2022-12-11T18:45:06.331Z,90.72
2022-12-11T18:47:37.973Z,90.97
2022-12-11T18:50:13.603Z,90.85
2022-12-11T18:52:43.849Z,91.25
2022-12-11T18:55:15.659Z,91.05
2022-12-11T18:57:46.752Z,91.29
2022-12-11T19:00:20.749Z,91.64
2022-12-11T19:02:53.842Z,91.79
2022-12-11T19:05:26.632Z,91.67
2022-12-11T19:08:02.603Z,92.04
2022-12-11T19:10:33.599Z,92.24
2022-12-11T19:13:05.310Z,92.53
2022-12-11T19:15:40.252Z,92.82
2022-12-11T19:18:12.318Z,92.93
2022-12-11T19:20:50.619Z,93.41
2022-12-11T19:23:25.731Z,93.37
2022-12-11T19:25:55.643Z,93.61
2022-12-11T19:28:28.532Z,93.72
2022-12-11T19:30:59.753Z,93.91
2022-12-11T19:33:35.947Z,93.72
2022-12-11T19:36:10.842Z,94.44
2022-12-11T19:38:42.638Z,94.07
2022-12-11T19:41:41.209Z,93.98
2022-12-11T19:44:12.319Z,93.91
2022-12-11T19:46:45.755Z,93.99
2022-12-11T19:49:20.851Z,93.90
2022-12-11T19:51:51.935Z,94.31
2022-12-11T19:54:22.435Z,93.95
2022-12-11T19:56:56.918Z,94.45
2022-12-11T19:59:34.808Z,94.76
2022-12-11T20:02:05.778Z,94.93
2022-12-11T20:04:43.817Z,95.18
2022-12-11T20:07:14.760Z,94.97
2022-12-11T20:09:45.108Z,95.04
2022-12-11T20:12:20.733Z,94.81
2022-12-11T20:14:51.849Z,94.92
2022-12-11T20:17:25.885Z,95.04
2022-12-11T20:19:58.074Z,95.31
2022-12-11T20:22:28.959Z,95.32
2022-12-11T20:25:00.865Z,95.81
2022-12-11T20:27:31.681Z,95.33
2022-12-11T20:30:02.220Z,95.45
2022-12-11T20:32:36.031Z,95.65
2022-12-11T20:35:09.524Z,95.40
2022-12-11T20:37:41.582Z,95.61
2022-12-11T20:40:14.809Z,95.43
2022-12-11T20:42:47.493Z,95.88
2022-12-11T20:45:19.246Z,95.36
2022-12-11T20:47:49.838Z,95.76
2022-12-11T20:50:20.477Z,95.68
2022-12-11T20:52:51.937Z,96.06
2022-12-11T20:55:23.870Z,96.09
2022-12-11T20:57:56.972Z,96.16
2022-12-11T21:00:27.858Z,95.96
2022-12-11T21:02:58.117Z,96.22
2022-12-11T21:05:28.228Z,96.48
2022-12-11T21:07:59.290Z,96.30
2022-12-11T21:10:28.807Z,96.42
2022-12-11T21:12:58.713Z,96.16
2022-12-11T21:15:31.285Z,96.33
2022-12-11T21:18:02.044Z,96.09
2022-12-11T21:20:32.287Z,96.37
2022-12-11T21:23:01.653Z,96.53
2022-12-11T21:25:32.303Z,96.58
2022-12-11T21:28:02.654Z,96.70
2022-12-11T21:30:32.112Z,96.82
2022-12-11T21:33:04.603Z,97.07
2022-12-11T21:35:33.941Z,97.18
2022-12-11T21:38:02.900Z,97.27
2022-12-11T21:40:31.981Z,96.87
2022-12-11T21:43:01.128Z,97.05
2022-12-11T21:48:18.838Z,97.66
2022-12-11T21:50:47.919Z,97.91
2022-12-11T21:53:17.064Z,98.21
2022-12-11T21:55:46.119Z,98.22
2022-12-11T21:58:14.800Z,98.35
2022-12-11T22:00:45.954Z,98.73
2022-12-11T22:03:15.661Z,98.65
2022-12-11T22:06:02.800Z,98.57
2022-12-11T22:08:42.620Z,98.88
2022-12-11T22:11:11.620Z,98.60
2022-12-11T22:13:40.701Z,98.84
2022-12-11T22:16:10.098Z,99.08
2022-12-11T22:18:39.501Z,99.19
2022-12-11T22:21:08.399Z,99.03
2022-12-11T22:23:40.865Z,99.33
2022-12-11T22:26:11.455Z,99.15
2022-12-11T22:28:41.420Z,99.16
2022-12-11T22:31:13.222Z,99.68
2022-12-11T22:33:43.972Z,99.69
2022-12-11T22:36:13.299Z,99.79
2022-12-11T22:38:42.200Z,99.99
2022-12-11T22:41:18.872Z,99.94
2022-12-11T22:43:51.139Z,99.95
2022-12-11T22:46:22.051Z,100.00
2022-12-11T22:48:51.062Z,100.00
2022-12-11T22:51:20.059Z,100.00
2022-12-11T22:53:48.963Z,100.00
2022-12-11T22:56:17.528Z,100.00
2022-12-11T22:58:46.740Z,100.00
2022-12-11T23:01:18.712Z,100.00
2022-12-11T23:03:48.029Z,100.00
2022-12-11T23:06:22.922Z,100.00
2022-12-11T23:08:55.289Z,100.00
2022-12-11T23:11:28.504Z,100.00
2022-12-11T23:13:58.819Z,100.00
2022-12-11T23:16:29.026Z,100.00
2022-12-11T23:18:58.543Z,100.00
2022-12-11T23:21:28.870Z,100.00
2022-12-11T23:23:58.891Z,100.00
2022-12-11T23:26:28.612Z,100.00
2022-12-11T23:28:58.916Z,100.00
2022-12-11T23:31:29.117Z,100.00
2022-12-11T23:33:58.146Z,100.00
2022-12-11T23:36:28.782Z,100.00
2022-12-11T23:38:57.860Z,100.00
2022-12-11T23:41:26.448Z,100.00
2022-12-11T23:43:55.647Z,100.00
2022-12-11T23:46:25.965Z,100.00
2022-12-11T23:48:55.571Z,100.00
2022-12-11T23:51:25.793Z,100.00
2022-12-11T23:53:55.055Z,100.00
2022-12-11T23:56:29.176Z,100.00
2022-12-11T23:58:58.301Z,100.00
